sensor_id;sensor_type;location;lat;lon;timestamp;pressure;altitude;pressure_sealevel;temperature;humidity
63535;BME280;55128;50.230;18.944;2023-04-29T00:04:42;98232.91;;;10.81;53.73
63535;BME280;55128;50.230;18.944;2023-04-29T00:09:42;98234.38;;;10.86;53.95
63535;BME280;55128;50.230;18.944;2023-04-29T00:14:43;98225.72;;;10.83;52.62
63535;BME280;55128;50.230;18.944;2023-04-29T00:19:43;98224.72;;;10.85;52.74
63535;BME280;55128;50.230;18.944;2023-04-29T00:24:44;98222.28;;;10.81;53.86
63535;BME280;55128;50.230;18.944;2023-04-29T00:29:44;98213.81;;;10.74;54.20
63535;BME280;55128;50.230;18.944;2023-04-29T00:34:45;98206.97;;;10.70;54.31
63535;BME280;55128;50.230;18.944;2023-04-29T00:39:45;98203.28;;;10.73;54.71
63535;BME280;55128;50.230;18.944;2023-04-29T00:44:45;98197.97;;;10.73;54.43
63535;BME280;55128;50.230;18.944;2023-04-29T00:49:46;98199.69;;;10.74;53.26
63535;BME280;55128;50.230;18.944;2023-04-29T00:54:46;98200.97;;;10.66;52.52
63535;BME280;55128;50.230;18.944;2023-04-29T00:59:48;98200.66;;;10.55;52.87
63535;BME280;55128;50.230;18.944;2023-04-29T01:04:49;98211.56;;;10.66;53.30
63535;BME280;55128;50.230;18.944;2023-04-29T01:10:02;98204.53;;;10.65;54.59
63535;BME280;55128;50.230;18.944;2023-04-29T01:15:04;98213.53;;;10.63;54.07
63535;BME280;55128;50.230;18.944;2023-04-29T01:20:09;98210.19;;;10.59;54.44
63535;BME280;55128;50.230;18.944;2023-04-29T01:25:10;98211.81;;;10.62;54.86
63535;BME280;55128;50.230;18.944;2023-04-29T01:41:13;98212.34;;;10.68;54.21
63535;BME280;55128;50.230;18.944;2023-04-29T01:46:16;98211.66;;;10.65;54.19
63535;BME280;55128;50.230;18.944;2023-04-29T01:51:17;98201.03;;;10.65;54.42
63535;BME280;55128;50.230;18.944;2023-04-29T01:56:17;98194.94;;;10.63;54.16
63535;BME280;55128;50.230;18.944;2023-04-29T02:01:18;98198.41;;;10.47;54.35
63535;BME280;55128;50.230;18.944;2023-04-29T02:06:18;98194.28;;;10.42;55.09
63535;BME280;55128;50.230;18.944;2023-04-29T02:11:18;98192.38;;;10.61;53.89
63535;BME280;55128;50.230;18.944;2023-04-29T02:16:19;98182.59;;;10.62;54.59
63535;BME280;55128;50.230;18.944;2023-04-29T02:21:19;98188.31;;;10.54;57.38
63535;BME280;55128;50.230;18.944;2023-04-29T02:26:19;98186.22;;;10.43;56.99
63535;BME280;55128;50.230;18.944;2023-04-29T02:31:20;98181.25;;;10.37;56.71
63535;BME280;55128;50.230;18.944;2023-04-29T02:36:20;98183.56;;;10.43;56.95
63535;BME280;55128;50.230;18.944;2023-04-29T02:41:21;98176.38;;;10.45;57.83
63535;BME280;55128;50.230;18.944;2023-04-29T02:46:21;98173.72;;;10.45;58.23
63535;BME280;55128;50.230;18.944;2023-04-29T02:51:21;98179.22;;;10.42;56.63
63535;BME280;55128;50.230;18.944;2023-04-29T02:56:22;98177.56;;;10.40;56.17
63535;BME280;55128;50.230;18.944;2023-04-29T03:01:22;98164.78;;;10.48;55.83
63535;BME280;55128;50.230;18.944;2023-04-29T03:06:23;98162.41;;;10.59;56.44
63535;BME280;55128;50.230;18.944;2023-04-29T03:11:23;98147.75;;;10.52;56.39
63535;BME280;55128;50.230;18.944;2023-04-29T03:16:24;98151.09;;;10.56;56.10
63535;BME280;55128;50.230;18.944;2023-04-29T03:21:25;98146.41;;;10.61;55.98
63535;BME280;55128;50.230;18.944;2023-04-29T03:26:26;98144.03;;;10.72;55.70
63535;BME280;55128;50.230;18.944;2023-04-29T03:31:27;98150.59;;;10.81;57.12
63535;BME280;55128;50.230;18.944;2023-04-29T03:36:27;98152.06;;;10.70;58.69
63535;BME280;55128;50.230;18.944;2023-04-29T03:41:28;98149.47;;;10.69;59.33
63535;BME280;55128;50.230;18.944;2023-04-29T03:46:28;98153.75;;;10.56;58.56
63535;BME280;55128;50.230;18.944;2023-04-29T03:51:29;98160.03;;;10.70;59.34
63535;BME280;55128;50.230;18.944;2023-04-29T03:56:29;98152.94;;;10.87;58.92
63535;BME280;55128;50.230;18.944;2023-04-29T04:01:29;98146.59;;;10.89;57.29
63535;BME280;55128;50.230;18.944;2023-04-29T04:06:30;98154.22;;;10.96;57.66
63535;BME280;55128;50.230;18.944;2023-04-29T04:11:31;98153.22;;;10.98;59.10
63535;BME280;55128;50.230;18.944;2023-04-29T04:16:31;98154.31;;;11.10;58.22
63535;BME280;55128;50.230;18.944;2023-04-29T04:21:31;98152.59;;;11.09;57.31
63535;BME280;55128;50.230;18.944;2023-04-29T04:26:32;98155.75;;;10.84;57.52
63535;BME280;55128;50.230;18.944;2023-04-29T04:31:32;98147.09;;;10.80;57.50
63535;BME280;55128;50.230;18.944;2023-04-29T04:36:33;98145.69;;;10.91;57.39
63535;BME280;55128;50.230;18.944;2023-04-29T04:41:33;98142.56;;;11.14;56.75
63535;BME280;55128;50.230;18.944;2023-04-29T04:46:34;98152.34;;;11.14;56.79
63535;BME280;55128;50.230;18.944;2023-04-29T04:51:35;98149.78;;;11.12;57.15
63535;BME280;55128;50.230;18.944;2023-04-29T04:56:36;98158.44;;;11.16;57.12
63535;BME280;55128;50.230;18.944;2023-04-29T05:01:37;98164.59;;;11.48;56.43
63535;BME280;55128;50.230;18.944;2023-04-29T05:06:37;98157.16;;;11.23;57.23
63535;BME280;55128;50.230;18.944;2023-04-29T05:11:37;98160.81;;;11.20;57.34
63535;BME280;55128;50.230;18.944;2023-04-29T05:16:38;98159.28;;;11.16;57.41
63535;BME280;55128;50.230;18.944;2023-04-29T05:21:38;98155.69;;;11.17;58.18
63535;BME280;55128;50.230;18.944;2023-04-29T05:26:38;98159.81;;;11.23;57.79
63535;BME280;55128;50.230;18.944;2023-04-29T05:31:39;98152.09;;;11.34;57.92
63535;BME280;55128;50.230;18.944;2023-04-29T05:36:39;98151.31;;;11.32;57.86
63535;BME280;55128;50.230;18.944;2023-04-29T05:41:39;98167.16;;;11.50;57.85
63535;BME280;55128;50.230;18.944;2023-04-29T05:46:40;98168.09;;;11.48;58.32
63535;BME280;55128;50.230;18.944;2023-04-29T05:51:40;98173.69;;;11.44;58.47
63535;BME280;55128;50.230;18.944;2023-04-29T05:56:41;98165.94;;;11.55;58.90
63535;BME280;55128;50.230;18.944;2023-04-29T06:01:41;98166.31;;;11.49;60.14
63535;BME280;55128;50.230;18.944;2023-04-29T06:06:42;98164.66;;;11.46;60.57
63535;BME280;55128;50.230;18.944;2023-04-29T06:11:42;98160.63;;;11.55;61.16
63535;BME280;55128;50.230;18.944;2023-04-29T06:16:46;98163.44;;;11.68;60.53
63535;BME280;55128;50.230;18.944;2023-04-29T06:21:46;98160.16;;;11.79;60.61
63535;BME280;55128;50.230;18.944;2023-04-29T06:26:46;98154.25;;;11.74;61.06
63535;BME280;55128;50.230;18.944;2023-04-29T06:31:47;98160.59;;;11.71;61.23
63535;BME280;55128;50.230;18.944;2023-04-29T06:36:48;98156.88;;;11.90;61.44
63535;BME280;55128;50.230;18.944;2023-04-29T06:41:48;98160.00;;;12.12;60.22
63535;BME280;55128;50.230;18.944;2023-04-29T06:46:49;98153.69;;;11.99;61.03
63535;BME280;55128;50.230;18.944;2023-04-29T06:51:49;98154.19;;;12.05;61.08
63535;BME280;55128;50.230;18.944;2023-04-29T06:56:49;98165.78;;;12.04;61.60
63535;BME280;55128;50.230;18.944;2023-04-29T07:01:50;98163.31;;;11.85;62.26
63535;BME280;55128;50.230;18.944;2023-04-29T07:06:51;98156.84;;;12.05;62.03
63535;BME280;55128;50.230;18.944;2023-04-29T07:11:53;98155.00;;;12.22;62.26
63535;BME280;55128;50.230;18.944;2023-04-29T07:16:54;98147.84;;;12.22;62.75
63535;BME280;55128;50.230;18.944;2023-04-29T07:21:54;98147.59;;;12.41;62.22
63535;BME280;55128;50.230;18.944;2023-04-29T07:26:54;98145.59;;;12.45;62.40
63535;BME280;55128;50.230;18.944;2023-04-29T07:31:55;98147.84;;;12.37;63.18
63535;BME280;55128;50.230;18.944;2023-04-29T07:36:56;98150.53;;;12.80;62.02
63535;BME280;55128;50.230;18.944;2023-04-29T07:41:56;98162.50;;;13.01;61.67
63535;BME280;55128;50.230;18.944;2023-04-29T07:46:57;98160.34;;;12.94;61.90
63535;BME280;55128;50.230;18.944;2023-04-29T07:51:57;98157.25;;;13.14;61.66
63535;BME280;55128;50.230;18.944;2023-04-29T07:56:57;98155.84;;;13.09;61.60
63535;BME280;55128;50.230;18.944;2023-04-29T08:01:58;98170.66;;;13.69;59.78
63535;BME280;55128;50.230;18.944;2023-04-29T08:06:58;98162.78;;;13.80;59.76
63535;BME280;55128;50.230;18.944;2023-04-29T08:11:59;98162.22;;;14.02;58.66
63535;BME280;55128;50.230;18.944;2023-04-29T08:17:00;98161.69;;;14.10;57.88
63535;BME280;55128;50.230;18.944;2023-04-29T08:22:01;98157.78;;;14.92;56.97
63535;BME280;55128;50.230;18.944;2023-04-29T08:27:03;98157.63;;;16.16;53.82
63535;BME280;55128;50.230;18.944;2023-04-29T08:32:03;98160.09;;;17.55;49.15
63535;BME280;55128;50.230;18.944;2023-04-29T08:37:04;98163.00;;;18.27;47.34
63535;BME280;55128;50.230;18.944;2023-04-29T08:42:08;98148.22;;;17.68;47.14
63535;BME280;55128;50.230;18.944;2023-04-29T08:47:09;98157.69;;;17.52;47.49
63535;BME280;55128;50.230;18.944;2023-04-29T08:52:10;98167.09;;;17.78;47.28
63535;BME280;55128;50.230;18.944;2023-04-29T08:57:11;98150.84;;;18.54;45.64
63535;BME280;55128;50.230;18.944;2023-04-29T09:02:15;98154.03;;;20.30;43.83
63535;BME280;55128;50.230;18.944;2023-04-29T09:07:21;98161.66;;;24.76;34.62
63535;BME280;55128;50.230;18.944;2023-04-29T09:12:22;98149.97;;;22.56;35.51
63535;BME280;55128;50.230;18.944;2023-04-29T09:17:42;98148.34;;;21.27;39.21
63535;BME280;55128;50.230;18.944;2023-04-29T09:22:50;98151.97;;;20.81;40.38
63535;BME280;55128;50.230;18.944;2023-04-29T09:27:51;98150.56;;;21.14;40.65
63535;BME280;55128;50.230;18.944;2023-04-29T09:33:06;98154.22;;;19.99;41.37
63535;BME280;55128;50.230;18.944;2023-04-29T09:38:09;98148.59;;;19.01;43.40
63535;BME280;55128;50.230;18.944;2023-04-29T09:43:12;98150.97;;;18.74;44.35
63535;BME280;55128;50.230;18.944;2023-04-29T09:48:14;98152.66;;;18.23;45.33
63535;BME280;55128;50.230;18.944;2023-04-29T09:53:27;98150.66;;;17.17;47.90
63535;BME280;55128;50.230;18.944;2023-04-29T09:58:30;98152.63;;;17.58;48.19
63535;BME280;55128;50.230;18.944;2023-04-29T10:03:35;98147.91;;;17.83;47.46
63535;BME280;55128;50.230;18.944;2023-04-29T10:08:37;98156.09;;;17.38;47.83
63535;BME280;55128;50.230;18.944;2023-04-29T10:13:41;98157.00;;;17.27;48.34
63535;BME280;55128;50.230;18.944;2023-04-29T10:18:48;98154.19;;;17.17;49.40
63535;BME280;55128;50.230;18.944;2023-04-29T10:23:51;98153.72;;;17.12;48.84
63535;BME280;55128;50.230;18.944;2023-04-29T10:28:55;98156.53;;;16.88;50.10
63535;BME280;55128;50.230;18.944;2023-04-29T10:33:56;98148.97;;;16.93;49.83
63535;BME280;55128;50.230;18.944;2023-04-29T10:38:58;98151.03;;;16.78;50.17
63535;BME280;55128;50.230;18.944;2023-04-29T10:44:00;98153.72;;;17.01;49.05
63535;BME280;55128;50.230;18.944;2023-04-29T10:49:02;98147.03;;;16.84;50.08
63535;BME280;55128;50.230;18.944;2023-04-29T10:59:14;98154.81;;;16.87;50.12
63535;BME280;55128;50.230;18.944;2023-04-29T11:04:16;98145.03;;;16.75;50.65
63535;BME280;55128;50.230;18.944;2023-04-29T11:09:25;98146.84;;;16.74;50.15
63535;BME280;55128;50.230;18.944;2023-04-29T11:14:29;98152.09;;;16.76;50.55
63535;BME280;55128;50.230;18.944;2023-04-29T11:19:35;98150.31;;;16.87;50.35
63535;BME280;55128;50.230;18.944;2023-04-29T11:24:35;98155.03;;;16.73;51.33
63535;BME280;55128;50.230;18.944;2023-04-29T11:29:37;98150.69;;;16.94;53.47
63535;BME280;55128;50.230;18.944;2023-04-29T11:34:37;98154.53;;;16.67;56.16
63535;BME280;55128;50.230;18.944;2023-04-29T11:39:38;98160.91;;;16.89;56.92
63535;BME280;55128;50.230;18.944;2023-04-29T11:44:38;98164.81;;;16.96;56.26
63535;BME280;55128;50.230;18.944;2023-04-29T11:49:38;98161.91;;;16.99;57.15
63535;BME280;55128;50.230;18.944;2023-04-29T11:54:39;98169.69;;;16.91;56.76
63535;BME280;55128;50.230;18.944;2023-04-29T11:59:41;98168.94;;;17.00;54.66
63535;BME280;55128;50.230;18.944;2023-04-29T12:04:45;98163.25;;;16.94;54.87
63535;BME280;55128;50.230;18.944;2023-04-29T12:09:46;98150.50;;;17.84;54.26
63535;BME280;55128;50.230;18.944;2023-04-29T12:14:46;98146.28;;;18.24;52.98
63535;BME280;55128;50.230;18.944;2023-04-29T12:19:47;98142.59;;;18.67;48.15
63535;BME280;55128;50.230;18.944;2023-04-29T12:24:51;98144.81;;;19.23;49.15
63535;BME280;55128;50.230;18.944;2023-04-29T12:29:53;98137.19;;;19.29;49.27
63535;BME280;55128;50.230;18.944;2023-04-29T12:34:54;98131.00;;;19.38;48.04
63535;BME280;55128;50.230;18.944;2023-04-29T12:39:54;98130.38;;;19.75;46.43
63535;BME280;55128;50.230;18.944;2023-04-29T12:44:55;98128.34;;;19.67;46.21
63535;BME280;55128;50.230;18.944;2023-04-29T12:49:56;98113.13;;;19.37;45.85
63535;BME280;55128;50.230;18.944;2023-04-29T12:54:57;98110.16;;;19.50;45.75
63535;BME280;55128;50.230;18.944;2023-04-29T12:59:58;98113.88;;;19.58;45.02
63535;BME280;55128;50.230;18.944;2023-04-29T13:04:58;98113.22;;;19.16;46.89
63535;BME280;55128;50.230;18.944;2023-04-29T13:09:59;98104.19;;;18.86;48.33
63535;BME280;55128;50.230;18.944;2023-04-29T13:14:59;98109.50;;;18.76;48.86
63535;BME280;55128;50.230;18.944;2023-04-29T13:20:00;98101.47;;;18.24;50.40
63535;BME280;55128;50.230;18.944;2023-04-29T13:25:00;98103.72;;;18.50;49.97
63535;BME280;55128;50.230;18.944;2023-04-29T13:30:01;98099.03;;;18.73;49.48
63535;BME280;55128;50.230;18.944;2023-04-29T13:35:01;98093.25;;;18.78;49.34
63535;BME280;55128;50.230;18.944;2023-04-29T13:40:03;98087.81;;;18.89;48.99
63535;BME280;55128;50.230;18.944;2023-04-29T13:45:04;98087.22;;;20.24;45.94
63535;BME280;55128;50.230;18.944;2023-04-29T13:50:05;98076.47;;;20.71;44.04
63535;BME280;55128;50.230;18.944;2023-04-29T13:55:06;98084.53;;;20.24;43.51
63535;BME280;55128;50.230;18.944;2023-04-29T14:00:07;98079.75;;;19.78;45.31
63535;BME280;55128;50.230;18.944;2023-04-29T14:05:11;98088.69;;;19.89;44.40
63535;BME280;55128;50.230;18.944;2023-04-29T14:10:12;98086.09;;;19.58;45.71
63535;BME280;55128;50.230;18.944;2023-04-29T14:15:12;98083.94;;;19.32;45.63
63535;BME280;55128;50.230;18.944;2023-04-29T14:20:13;98087.63;;;18.81;47.52
63535;BME280;55128;50.230;18.944;2023-04-29T14:25:14;98089.53;;;18.38;48.68
63535;BME280;55128;50.230;18.944;2023-04-29T14:30:14;98084.50;;;18.03;50.37
63535;BME280;55128;50.230;18.944;2023-04-29T14:35:14;98089.34;;;18.09;49.88
63535;BME280;55128;50.230;18.944;2023-04-29T14:40:15;98094.84;;;17.86;51.13
63535;BME280;55128;50.230;18.944;2023-04-29T14:45:15;98085.81;;;18.09;50.86
63535;BME280;55128;50.230;18.944;2023-04-29T14:50:16;98081.88;;;17.27;51.55
63535;BME280;55128;50.230;18.944;2023-04-29T14:55:17;98093.66;;;17.68;50.95
63535;BME280;55128;50.230;18.944;2023-04-29T15:00:17;98087.16;;;17.82;50.28
63535;BME280;55128;50.230;18.944;2023-04-29T15:05:18;98095.22;;;18.24;50.01
63535;BME280;55128;50.230;18.944;2023-04-29T15:10:18;98090.56;;;18.47;49.59
63535;BME280;55128;50.230;18.944;2023-04-29T15:15:19;98089.13;;;18.74;48.34
63535;BME280;55128;50.230;18.944;2023-04-29T15:20:20;98090.84;;;19.06;48.35
63535;BME280;55128;50.230;18.944;2023-04-29T15:25:20;98089.38;;;18.71;48.79
63535;BME280;55128;50.230;18.944;2023-04-29T15:30:21;98093.94;;;18.18;50.38
63535;BME280;55128;50.230;18.944;2023-04-29T15:35:21;98100.69;;;17.80;51.76
63535;BME280;55128;50.230;18.944;2023-04-29T15:40:22;98102.50;;;17.59;51.82
63535;BME280;55128;50.230;18.944;2023-04-29T15:45:22;98108.91;;;17.35;53.00
63535;BME280;55128;50.230;18.944;2023-04-29T15:50:22;98099.28;;;17.44;52.05
63535;BME280;55128;50.230;18.944;2023-04-29T15:55:23;98105.91;;;17.17;52.72
63535;BME280;55128;50.230;18.944;2023-04-29T16:00:23;98106.56;;;16.87;54.17
63535;BME280;55128;50.230;18.944;2023-04-29T16:05:24;98103.25;;;16.95;54.12
63535;BME280;55128;50.230;18.944;2023-04-29T16:10:24;98112.00;;;16.74;55.24
63535;BME280;55128;50.230;18.944;2023-04-29T16:15:25;98111.53;;;16.69;56.52
63535;BME280;55128;50.230;18.944;2023-04-29T16:20:26;98118.13;;;16.76;57.10
63535;BME280;55128;50.230;18.944;2023-04-29T16:25:26;98119.50;;;16.93;56.47
63535;BME280;55128;50.230;18.944;2023-04-29T16:30:27;98120.34;;;16.94;54.67
63535;BME280;55128;50.230;18.944;2023-04-29T16:35:27;98115.44;;;16.76;54.64
63535;BME280;55128;50.230;18.944;2023-04-29T16:40:29;98125.41;;;16.63;55.60
63535;BME280;55128;50.230;18.944;2023-04-29T16:45:30;98127.94;;;16.42;56.78
63535;BME280;55128;50.230;18.944;2023-04-29T16:50:30;98135.47;;;16.25;58.18
63535;BME280;55128;50.230;18.944;2023-04-29T16:55:31;98140.78;;;16.14;58.49
63535;BME280;55128;50.230;18.944;2023-04-29T17:00:31;98152.94;;;15.96;58.86
63535;BME280;55128;50.230;18.944;2023-04-29T17:05:32;98148.63;;;15.93;58.81
63535;BME280;55128;50.230;18.944;2023-04-29T17:10:32;98149.78;;;15.53;60.61
63535;BME280;55128;50.230;18.944;2023-04-29T17:15:33;98151.56;;;15.66;60.41
63535;BME280;55128;50.230;18.944;2023-04-29T17:20:33;98152.22;;;15.57;60.63
63535;BME280;55128;50.230;18.944;2023-04-29T17:25:36;98144.94;;;15.59;61.11
63535;BME280;55128;50.230;18.944;2023-04-29T17:30:36;98155.28;;;15.63;60.62
63535;BME280;55128;50.230;18.944;2023-04-29T17:35:36;98157.22;;;15.37;61.55
63535;BME280;55128;50.230;18.944;2023-04-29T17:40:37;98158.50;;;15.31;62.35
63535;BME280;55128;50.230;18.944;2023-04-29T17:45:40;98161.63;;;15.25;62.55
63535;BME280;55128;50.230;18.944;2023-04-29T17:50:40;98165.97;;;15.15;62.63
63535;BME280;55128;50.230;18.944;2023-04-29T17:55:41;98166.28;;;14.97;63.72
63535;BME280;55128;50.230;18.944;2023-04-29T18:00:44;98169.66;;;14.75;64.67
63535;BME280;55128;50.230;18.944;2023-04-29T18:05:45;98174.47;;;14.83;64.37
63535;BME280;55128;50.230;18.944;2023-04-29T18:10:46;98173.94;;;14.78;65.30
63535;BME280;55128;50.230;18.944;2023-04-29T18:15:46;98178.97;;;14.70;66.06
63535;BME280;55128;50.230;18.944;2023-04-29T18:20:47;98188.56;;;14.72;66.07
63535;BME280;55128;50.230;18.944;2023-04-29T18:25:48;98185.59;;;14.64;66.68
63535;BME280;55128;50.230;18.944;2023-04-29T18:30:48;98195.59;;;14.48;68.05
63535;BME280;55128;50.230;18.944;2023-04-29T18:35:49;98197.28;;;14.49;67.91
63535;BME280;55128;50.230;18.944;2023-04-29T18:40:49;98200.81;;;14.36;68.74
63535;BME280;55128;50.230;18.944;2023-04-29T18:45:50;98217.25;;;14.43;68.81
63535;BME280;55128;50.230;18.944;2023-04-29T18:50:51;98217.59;;;14.38;69.01
63535;BME280;55128;50.230;18.944;2023-04-29T18:55:51;98221.75;;;14.43;69.76
63535;BME280;55128;50.230;18.944;2023-04-29T19:00:52;98226.91;;;14.46;69.80
63535;BME280;55128;50.230;18.944;2023-04-29T19:05:52;98227.63;;;14.48;70.03
63535;BME280;55128;50.230;18.944;2023-04-29T19:10:53;98221.69;;;14.57;70.19
63535;BME280;55128;50.230;18.944;2023-04-29T19:15:53;98233.50;;;14.40;71.39
63535;BME280;55128;50.230;18.944;2023-04-29T19:20:54;98232.38;;;14.57;71.29
63535;BME280;55128;50.230;18.944;2023-04-29T19:25:55;98237.56;;;14.33;72.91
63535;BME280;55128;50.230;18.944;2023-04-29T19:30:55;98243.09;;;14.30;74.69
63535;BME280;55128;50.230;18.944;2023-04-29T19:35:56;98240.50;;;14.28;75.75
63535;BME280;55128;50.230;18.944;2023-04-29T19:40:56;98257.03;;;14.08;77.57
63535;BME280;55128;50.230;18.944;2023-04-29T19:45:56;98257.88;;;14.08;78.47
63535;BME280;55128;50.230;18.944;2023-04-29T19:50:58;98261.00;;;13.88;79.04
63535;BME280;55128;50.230;18.944;2023-04-29T19:55:58;98264.19;;;13.80;78.95
63535;BME280;55128;50.230;18.944;2023-04-29T20:00:59;98271.25;;;13.67;79.11
63535;BME280;55128;50.230;18.944;2023-04-29T20:05:59;98271.69;;;13.46;79.81
63535;BME280;55128;50.230;18.944;2023-04-29T20:10:59;98277.09;;;13.16;80.03
63535;BME280;55128;50.230;18.944;2023-04-29T20:16:01;98282.13;;;13.06;80.16
63535;BME280;55128;50.230;18.944;2023-04-29T20:21:01;98281.16;;;12.93;81.13
63535;BME280;55128;50.230;18.944;2023-04-29T20:26:02;98277.06;;;12.73;82.29
63535;BME280;55128;50.230;18.944;2023-04-29T20:31:03;98284.75;;;12.77;81.26
63535;BME280;55128;50.230;18.944;2023-04-29T20:36:03;98280.97;;;12.67;82.29
63535;BME280;55128;50.230;18.944;2023-04-29T20:41:05;98279.06;;;12.83;81.75
63535;BME280;55128;50.230;18.944;2023-04-29T20:46:06;98273.94;;;12.80;82.72
63535;BME280;55128;50.230;18.944;2023-04-29T20:51:07;98277.25;;;12.70;83.17
63535;BME280;55128;50.230;18.944;2023-04-29T20:56:09;98271.06;;;12.69;82.75
63535;BME280;55128;50.230;18.944;2023-04-29T21:01:10;98276.00;;;12.75;82.86
63535;BME280;55128;50.230;18.944;2023-04-29T21:06:10;98284.47;;;12.68;83.36
63535;BME280;55128;50.230;18.944;2023-04-29T21:11:11;98290.09;;;12.77;83.07
63535;BME280;55128;50.230;18.944;2023-04-29T21:16:11;98293.34;;;12.82;83.45
63535;BME280;55128;50.230;18.944;2023-04-29T21:21:11;98300.44;;;12.68;84.09
63535;BME280;55128;50.230;18.944;2023-04-29T21:26:12;98293.59;;;12.78;83.93
63535;BME280;55128;50.230;18.944;2023-04-29T21:31:14;98299.81;;;12.78;84.09
63535;BME280;55128;50.230;18.944;2023-04-29T21:36:15;98297.41;;;12.74;84.33
63535;BME280;55128;50.230;18.944;2023-04-29T21:41:28;98303.97;;;12.68;85.25
63535;BME280;55128;50.230;18.944;2023-04-29T21:46:30;98309.34;;;12.52;85.19
63535;BME280;55128;50.230;18.944;2023-04-29T21:51:34;98309.28;;;12.54;84.47
63535;BME280;55128;50.230;18.944;2023-04-29T21:56:34;98313.72;;;12.53;84.73
63535;BME280;55128;50.230;18.944;2023-04-29T22:01:35;98318.72;;;12.43;85.18
63535;BME280;55128;50.230;18.944;2023-04-29T22:06:44;98318.41;;;12.64;84.94
63535;BME280;55128;50.230;18.944;2023-04-29T22:11:45;98319.56;;;12.74;84.95
63535;BME280;55128;50.230;18.944;2023-04-29T22:16:45;98321.66;;;12.69;84.98
63535;BME280;55128;50.230;18.944;2023-04-29T22:21:45;98326.91;;;12.71;84.95
63535;BME280;55128;50.230;18.944;2023-04-29T22:26:46;98325.34;;;12.67;84.58
63535;BME280;55128;50.230;18.944;2023-04-29T22:31:46;98333.31;;;12.52;85.69
63535;BME280;55128;50.230;18.944;2023-04-29T22:36:46;98330.91;;;12.48;85.32
63535;BME280;55128;50.230;18.944;2023-04-29T22:41:47;98332.97;;;12.42;85.00
63535;BME280;55128;50.230;18.944;2023-04-29T22:46:47;98339.88;;;12.31;86.19
63535;BME280;55128;50.230;18.944;2023-04-29T22:51:47;98347.09;;;12.44;85.26
63535;BME280;55128;50.230;18.944;2023-04-29T22:56:48;98353.50;;;12.40;85.35
63535;BME280;55128;50.230;18.944;2023-04-29T23:01:48;98349.41;;;12.35;84.82
63535;BME280;55128;50.230;18.944;2023-04-29T23:06:48;98352.09;;;12.19;85.64
63535;BME280;55128;50.230;18.944;2023-04-29T23:11:49;98354.16;;;12.30;85.11
63535;BME280;55128;50.230;18.944;2023-04-29T23:16:49;98352.69;;;12.08;86.25
63535;BME280;55128;50.230;18.944;2023-04-29T23:21:50;98352.00;;;12.04;86.90
63535;BME280;55128;50.230;18.944;2023-04-29T23:26:50;98358.03;;;11.92;86.93
63535;BME280;55128;50.230;18.944;2023-04-29T23:31:50;98355.88;;;11.99;87.03
63535;BME280;55128;50.230;18.944;2023-04-29T23:36:51;98356.16;;;11.94;86.96
63535;BME280;55128;50.230;18.944;2023-04-29T23:41:51;98348.34;;;12.07;86.96
63535;BME280;55128;50.230;18.944;2023-04-29T23:46:51;98347.19;;;11.95;87.49
63535;BME280;55128;50.230;18.944;2023-04-29T23:51:52;98353.47;;;11.94;87.47
63535;BME280;55128;50.230;18.944;2023-04-29T23:56:53;98356.56;;;12.02;86.87
